sensor_id;sensor_type;location;lat;lon;timestamp;temperature;humidity
42019;DHT22;27703;51.980;5.848;2024-02-21T00:02:03;9.40;99.90
42019;DHT22;27703;51.980;5.848;2024-02-21T00:04:28;9.30;99.90
42019;DHT22;27703;51.980;5.848;2024-02-21T00:06:54;9.30;99.90
42019;DHT22;27703;51.980;5.848;2024-02-21T00:09:19;9.30;99.90
42019;DHT22;27703;51.980;5.848;2024-02-21T00:11:45;9.30;99.90
42019;DHT22;27703;51.980;5.848;2024-02-21T00:14:11;9.30;99.90
42019;DHT22;27703;51.980;5.848;2024-02-21T00:16:36;9.30;99.90
42019;DHT22;27703;51.980;5.848;2024-02-21T00:19:02;9.30;99.90
42019;DHT22;27703;51.980;5.848;2024-02-21T00:21:27;9.30;99.90
42019;DHT22;27703;51.980;5.848;2024-02-21T00:23:53;9.30;99.90
42019;DHT22;27703;51.980;5.848;2024-02-21T00:26:18;9.30;99.90
42019;DHT22;27703;51.980;5.848;2024-02-21T00:28:44;9.30;99.90
42019;DHT22;27703;51.980;5.848;2024-02-21T00:31:10;9.30;99.90
42019;DHT22;27703;51.980;5.848;2024-02-21T00:33:36;9.30;99.90
42019;DHT22;27703;51.980;5.848;2024-02-21T00:36:01;9.30;99.90
42019;DHT22;27703;51.980;5.848;2024-02-21T00:38:27;9.30;99.90
42019;DHT22;27703;51.980;5.848;2024-02-21T00:40:52;9.30;99.90
42019;DHT22;27703;51.980;5.848;2024-02-21T00:43:18;9.30;99.90
42019;DHT22;27703;51.980;5.848;2024-02-21T00:45:43;9.30;99.90
42019;DHT22;27703;51.980;5.848;2024-02-21T00:48:09;9.30;99.90
42019;DHT22;27703;51.980;5.848;2024-02-21T00:50:35;9.30;99.90
42019;DHT22;27703;51.980;5.848;2024-02-21T00:53:00;9.30;99.90
42019;DHT22;27703;51.980;5.848;2024-02-21T00:55:26;9.30;99.90
42019;DHT22;27703;51.980;5.848;2024-02-21T00:57:51;9.30;99.90
42019;DHT22;27703;51.980;5.848;2024-02-21T01:00:17;9.30;99.90
42019;DHT22;27703;51.980;5.848;2024-02-21T01:02:43;9.30;99.90
42019;DHT22;27703;51.980;5.848;2024-02-21T01:05:08;9.30;99.90
42019;DHT22;27703;51.980;5.848;2024-02-21T01:07:34;9.30;99.90
42019;DHT22;27703;51.980;5.848;2024-02-21T01:09:59;9.30;99.90
42019;DHT22;27703;51.980;5.848;2024-02-21T01:12:25;9.30;99.90
42019;DHT22;27703;51.980;5.848;2024-02-21T01:14:51;9.30;99.90
42019;DHT22;27703;51.980;5.848;2024-02-21T01:17:16;9.30;99.90
42019;DHT22;27703;51.980;5.848;2024-02-21T01:19:42;9.30;99.90
42019;DHT22;27703;51.980;5.848;2024-02-21T01:22:08;9.30;99.90
42019;DHT22;27703;51.980;5.848;2024-02-21T01:24:34;9.30;99.90
42019;DHT22;27703;51.980;5.848;2024-02-21T01:26:59;9.30;99.90
42019;DHT22;27703;51.980;5.848;2024-02-21T01:29:25;9.30;99.90
42019;DHT22;27703;51.980;5.848;2024-02-21T01:31:50;9.30;99.90
42019;DHT22;27703;51.980;5.848;2024-02-21T01:34:16;9.30;99.90
42019;DHT22;27703;51.980;5.848;2024-02-21T01:36:42;9.20;99.90
42019;DHT22;27703;51.980;5.848;2024-02-21T01:39:07;9.30;99.90
42019;DHT22;27703;51.980;5.848;2024-02-21T01:41:33;9.30;99.90
42019;DHT22;27703;51.980;5.848;2024-02-21T01:43:59;9.30;99.90
42019;DHT22;27703;51.980;5.848;2024-02-21T01:46:25;9.30;99.90
42019;DHT22;27703;51.980;5.848;2024-02-21T01:48:56;9.20;99.90
42019;DHT22;27703;51.980;5.848;2024-02-21T01:51:22;9.30;99.90
42019;DHT22;27703;51.980;5.848;2024-02-21T01:53:48;9.20;99.90
42019;DHT22;27703;51.980;5.848;2024-02-21T01:56:16;9.20;99.90
42019;DHT22;27703;51.980;5.848;2024-02-21T01:58:42;9.20;99.90
42019;DHT22;27703;51.980;5.848;2024-02-21T02:01:10;9.20;99.90
42019;DHT22;27703;51.980;5.848;2024-02-21T02:03:36;9.20;99.90
42019;DHT22;27703;51.980;5.848;2024-02-21T02:06:02;9.20;99.90
42019;DHT22;27703;51.980;5.848;2024-02-21T02:08:27;9.20;99.90
42019;DHT22;27703;51.980;5.848;2024-02-21T02:10:53;9.20;99.90
42019;DHT22;27703;51.980;5.848;2024-02-21T02:13:19;9.20;99.90
42019;DHT22;27703;51.980;5.848;2024-02-21T02:15:48;9.20;99.90
42019;DHT22;27703;51.980;5.848;2024-02-21T02:18:15;9.20;99.90
42019;DHT22;27703;51.980;5.848;2024-02-21T02:20:41;9.20;99.90
42019;DHT22;27703;51.980;5.848;2024-02-21T02:23:11;9.20;99.90
42019;DHT22;27703;51.980;5.848;2024-02-21T02:25:37;9.20;99.90
42019;DHT22;27703;51.980;5.848;2024-02-21T02:28:04;9.20;99.90
42019;DHT22;27703;51.980;5.848;2024-02-21T02:30:35;9.20;99.90
42019;DHT22;27703;51.980;5.848;2024-02-21T02:33:05;9.20;99.90
42019;DHT22;27703;51.980;5.848;2024-02-21T02:35:31;9.20;99.90
42019;DHT22;27703;51.980;5.848;2024-02-21T02:37:56;9.20;99.90
42019;DHT22;27703;51.980;5.848;2024-02-21T02:40:22;9.20;99.90
42019;DHT22;27703;51.980;5.848;2024-02-21T02:42:48;9.20;99.90
42019;DHT22;27703;51.980;5.848;2024-02-21T02:45:15;9.20;99.90
42019;DHT22;27703;51.980;5.848;2024-02-21T02:47:41;9.20;99.90
42019;DHT22;27703;51.980;5.848;2024-02-21T02:50:07;9.20;99.90
42019;DHT22;27703;51.980;5.848;2024-02-21T02:52:33;9.20;99.90
42019;DHT22;27703;51.980;5.848;2024-02-21T02:54:59;9.10;99.90
42019;DHT22;27703;51.980;5.848;2024-02-21T02:57:24;9.20;99.90
42019;DHT22;27703;51.980;5.848;2024-02-21T02:59:51;9.10;99.90
42019;DHT22;27703;51.980;5.848;2024-02-21T03:02:17;9.10;99.90
42019;DHT22;27703;51.980;5.848;2024-02-21T03:04:43;9.20;99.90
42019;DHT22;27703;51.980;5.848;2024-02-21T03:07:08;9.10;99.90
42019;DHT22;27703;51.980;5.848;2024-02-21T03:09:34;9.10;99.90
42019;DHT22;27703;51.980;5.848;2024-02-21T03:12:00;9.20;99.90
42019;DHT22;27703;51.980;5.848;2024-02-21T03:14:31;9.10;99.90
42019;DHT22;27703;51.980;5.848;2024-02-21T03:16:58;9.10;99.90
42019;DHT22;27703;51.980;5.848;2024-02-21T03:19:24;9.10;99.90
42019;DHT22;27703;51.980;5.848;2024-02-21T03:21:50;9.10;99.90
42019;DHT22;27703;51.980;5.848;2024-02-21T03:24:16;9.10;99.90
42019;DHT22;27703;51.980;5.848;2024-02-21T03:26:42;9.10;99.90
42019;DHT22;27703;51.980;5.848;2024-02-21T03:29:08;9.10;99.90
42019;DHT22;27703;51.980;5.848;2024-02-21T03:31:37;9.10;99.90
42019;DHT22;27703;51.980;5.848;2024-02-21T03:34:03;9.10;99.90
42019;DHT22;27703;51.980;5.848;2024-02-21T03:36:29;9.10;99.90
42019;DHT22;27703;51.980;5.848;2024-02-21T03:38:55;9.10;99.90
42019;DHT22;27703;51.980;5.848;2024-02-21T03:41:21;9.10;99.90
42019;DHT22;27703;51.980;5.848;2024-02-21T03:43:47;9.10;99.90
42019;DHT22;27703;51.980;5.848;2024-02-21T03:46:12;9.10;99.90
42019;DHT22;27703;51.980;5.848;2024-02-21T03:48:38;9.10;99.90
42019;DHT22;27703;51.980;5.848;2024-02-21T03:51:04;9.10;99.90
42019;DHT22;27703;51.980;5.848;2024-02-21T03:53:29;9.10;99.90
42019;DHT22;27703;51.980;5.848;2024-02-21T03:55:55;9.10;99.90
42019;DHT22;27703;51.980;5.848;2024-02-21T03:58:21;9.10;99.90
42019;DHT22;27703;51.980;5.848;2024-02-21T04:00:47;9.10;99.90
42019;DHT22;27703;51.980;5.848;2024-02-21T04:03:13;9.10;99.90
42019;DHT22;27703;51.980;5.848;2024-02-21T04:05:39;9.10;99.90
42019;DHT22;27703;51.980;5.848;2024-02-21T04:08:05;9.10;99.90
42019;DHT22;27703;51.980;5.848;2024-02-21T04:10:31;9.10;99.90
42019;DHT22;27703;51.980;5.848;2024-02-21T04:12:56;9.10;99.90
42019;DHT22;27703;51.980;5.848;2024-02-21T04:15:22;9.10;99.90
42019;DHT22;27703;51.980;5.848;2024-02-21T04:17:47;9.10;99.90
42019;DHT22;27703;51.980;5.848;2024-02-21T04:20:15;9.10;99.90
42019;DHT22;27703;51.980;5.848;2024-02-21T04:22:44;9.10;99.90
42019;DHT22;27703;51.980;5.848;2024-02-21T04:25:12;9.10;99.90
42019;DHT22;27703;51.980;5.848;2024-02-21T04:27:41;9.10;99.90
42019;DHT22;27703;51.980;5.848;2024-02-21T04:30:07;9.10;99.90
42019;DHT22;27703;51.980;5.848;2024-02-21T04:32:33;9.10;99.90
42019;DHT22;27703;51.980;5.848;2024-02-21T04:34:59;9.10;99.90
42019;DHT22;27703;51.980;5.848;2024-02-21T04:37:24;9.10;99.90
42019;DHT22;27703;51.980;5.848;2024-02-21T04:39:50;9.10;99.90
42019;DHT22;27703;51.980;5.848;2024-02-21T04:42:16;9.10;99.90
42019;DHT22;27703;51.980;5.848;2024-02-21T04:44:42;9.10;99.90
42019;DHT22;27703;51.980;5.848;2024-02-21T04:47:07;9.10;99.90
42019;DHT22;27703;51.980;5.848;2024-02-21T04:49:33;9.10;99.90
42019;DHT22;27703;51.980;5.848;2024-02-21T04:51:59;9.10;99.90
42019;DHT22;27703;51.980;5.848;2024-02-21T04:54:24;9.10;99.90
42019;DHT22;27703;51.980;5.848;2024-02-21T04:56:51;9.10;99.90
42019;DHT22;27703;51.980;5.848;2024-02-21T04:59:17;9.10;99.90
42019;DHT22;27703;51.980;5.848;2024-02-21T05:01:42;9.10;99.90
42019;DHT22;27703;51.980;5.848;2024-02-21T05:04:08;9.10;99.90
42019;DHT22;27703;51.980;5.848;2024-02-21T05:06:40;9.10;99.90
42019;DHT22;27703;51.980;5.848;2024-02-21T05:09:07;9.10;99.90
42019;DHT22;27703;51.980;5.848;2024-02-21T05:11:34;9.10;99.90
42019;DHT22;27703;51.980;5.848;2024-02-21T05:14:00;9.10;99.90
42019;DHT22;27703;51.980;5.848;2024-02-21T05:16:25;9.10;99.90
42019;DHT22;27703;51.980;5.848;2024-02-21T05:18:51;9.10;99.90
42019;DHT22;27703;51.980;5.848;2024-02-21T05:21:16;9.10;99.90
42019;DHT22;27703;51.980;5.848;2024-02-21T05:23:42;9.10;99.90
42019;DHT22;27703;51.980;5.848;2024-02-21T05:26:07;9.10;99.90
42019;DHT22;27703;51.980;5.848;2024-02-21T05:28:33;9.10;99.90
42019;DHT22;27703;51.980;5.848;2024-02-21T05:30:59;9.10;99.90
42019;DHT22;27703;51.980;5.848;2024-02-21T05:33:25;9.10;99.90
42019;DHT22;27703;51.980;5.848;2024-02-21T05:35:50;9.10;99.90
42019;DHT22;27703;51.980;5.848;2024-02-21T05:38:17;9.10;99.90
42019;DHT22;27703;51.980;5.848;2024-02-21T05:40:42;9.10;99.90
42019;DHT22;27703;51.980;5.848;2024-02-21T05:43:08;9.10;99.90
42019;DHT22;27703;51.980;5.848;2024-02-21T05:45:34;9.10;99.90
42019;DHT22;27703;51.980;5.848;2024-02-21T05:48:00;9.10;99.90
42019;DHT22;27703;51.980;5.848;2024-02-21T05:50:25;9.10;99.90
42019;DHT22;27703;51.980;5.848;2024-02-21T05:52:55;9.00;99.90
42019;DHT22;27703;51.980;5.848;2024-02-21T05:55:21;9.10;99.90
42019;DHT22;27703;51.980;5.848;2024-02-21T05:57:47;9.00;99.90
42019;DHT22;27703;51.980;5.848;2024-02-21T06:00:13;9.10;99.90
42019;DHT22;27703;51.980;5.848;2024-02-21T06:02:39;9.00;99.90
42019;DHT22;27703;51.980;5.848;2024-02-21T06:05:06;9.00;99.90
42019;DHT22;27703;51.980;5.848;2024-02-21T06:07:33;9.00;99.90
42019;DHT22;27703;51.980;5.848;2024-02-21T06:09:59;9.10;99.90
42019;DHT22;27703;51.980;5.848;2024-02-21T06:12:25;9.00;99.90
42019;DHT22;27703;51.980;5.848;2024-02-21T06:14:50;9.10;99.90
42019;DHT22;27703;51.980;5.848;2024-02-21T06:17:16;9.10;99.90
42019;DHT22;27703;51.980;5.848;2024-02-21T06:19:43;9.10;99.90
42019;DHT22;27703;51.980;5.848;2024-02-21T06:22:08;9.10;99.90
42019;DHT22;27703;51.980;5.848;2024-02-21T06:24:35;9.10;99.90
42019;DHT22;27703;51.980;5.848;2024-02-21T06:27:02;9.10;99.90
42019;DHT22;27703;51.980;5.848;2024-02-21T06:29:27;9.00;99.90
42019;DHT22;27703;51.980;5.848;2024-02-21T06:31:53;9.00;99.90
42019;DHT22;27703;51.980;5.848;2024-02-21T06:34:18;9.00;99.90
42019;DHT22;27703;51.980;5.848;2024-02-21T06:36:45;9.10;99.90
42019;DHT22;27703;51.980;5.848;2024-02-21T06:39:10;9.10;99.90
42019;DHT22;27703;51.980;5.848;2024-02-21T06:41:37;9.10;99.90
42019;DHT22;27703;51.980;5.848;2024-02-21T06:44:02;9.10;99.90
42019;DHT22;27703;51.980;5.848;2024-02-21T06:46:29;9.10;99.90
42019;DHT22;27703;51.980;5.848;2024-02-21T06:48:55;9.10;99.90
42019;DHT22;27703;51.980;5.848;2024-02-21T06:51:24;9.10;99.90
42019;DHT22;27703;51.980;5.848;2024-02-21T06:53:50;9.10;99.90
42019;DHT22;27703;51.980;5.848;2024-02-21T06:56:16;9.10;99.90
42019;DHT22;27703;51.980;5.848;2024-02-21T06:58:41;9.10;99.90
42019;DHT22;27703;51.980;5.848;2024-02-21T07:01:07;9.10;99.90
42019;DHT22;27703;51.980;5.848;2024-02-21T07:03:33;9.10;99.90
42019;DHT22;27703;51.980;5.848;2024-02-21T07:05:58;9.10;99.90
42019;DHT22;27703;51.980;5.848;2024-02-21T07:08:24;9.10;99.90
42019;DHT22;27703;51.980;5.848;2024-02-21T07:10:52;9.10;99.90
42019;DHT22;27703;51.980;5.848;2024-02-21T07:13:18;9.00;99.90
42019;DHT22;27703;51.980;5.848;2024-02-21T07:15:43;9.10;99.90
42019;DHT22;27703;51.980;5.848;2024-02-21T07:18:09;9.10;99.90
42019;DHT22;27703;51.980;5.848;2024-02-21T07:20:35;9.10;99.90
42019;DHT22;27703;51.980;5.848;2024-02-21T07:23:03;9.00;99.90
42019;DHT22;27703;51.980;5.848;2024-02-21T07:25:29;9.10;99.90
42019;DHT22;27703;51.980;5.848;2024-02-21T07:27:55;9.10;99.90
42019;DHT22;27703;51.980;5.848;2024-02-21T07:30:21;9.10;99.90
42019;DHT22;27703;51.980;5.848;2024-02-21T07:32:49;9.10;99.90
42019;DHT22;27703;51.980;5.848;2024-02-21T07:35:15;9.10;99.90
42019;DHT22;27703;51.980;5.848;2024-02-21T07:37:41;9.10;99.90
42019;DHT22;27703;51.980;5.848;2024-02-21T07:40:12;9.10;99.90
42019;DHT22;27703;51.980;5.848;2024-02-21T07:42:37;9.10;99.90
42019;DHT22;27703;51.980;5.848;2024-02-21T07:45:03;9.10;99.90
42019;DHT22;27703;51.980;5.848;2024-02-21T07:47:29;9.10;99.90
42019;DHT22;27703;51.980;5.848;2024-02-21T07:49:54;9.10;99.90
42019;DHT22;27703;51.980;5.848;2024-02-21T07:52:20;9.10;99.90
42019;DHT22;27703;51.980;5.848;2024-02-21T07:54:45;9.10;99.90
42019;DHT22;27703;51.980;5.848;2024-02-21T07:57:11;9.10;99.90
42019;DHT22;27703;51.980;5.848;2024-02-21T07:59:37;9.10;99.90
42019;DHT22;27703;51.980;5.848;2024-02-21T08:02:02;9.20;99.90
42019;DHT22;27703;51.980;5.848;2024-02-21T08:04:32;9.20;99.90
42019;DHT22;27703;51.980;5.848;2024-02-21T08:06:57;9.20;99.90
42019;DHT22;27703;51.980;5.848;2024-02-21T08:09:26;9.20;99.90
42019;DHT22;27703;51.980;5.848;2024-02-21T08:11:52;9.20;99.90
42019;DHT22;27703;51.980;5.848;2024-02-21T08:14:17;9.20;99.90
42019;DHT22;27703;51.980;5.848;2024-02-21T08:16:43;9.20;99.90
42019;DHT22;27703;51.980;5.848;2024-02-21T08:19:10;9.20;99.90
42019;DHT22;27703;51.980;5.848;2024-02-21T08:21:35;9.20;99.90
42019;DHT22;27703;51.980;5.848;2024-02-21T08:24:01;9.30;99.90
42019;DHT22;27703;51.980;5.848;2024-02-21T08:26:27;9.20;99.90
42019;DHT22;27703;51.980;5.848;2024-02-21T08:28:56;9.30;99.90
42019;DHT22;27703;51.980;5.848;2024-02-21T08:31:26;9.30;99.90
42019;DHT22;27703;51.980;5.848;2024-02-21T08:33:59;9.40;99.90
42019;DHT22;27703;51.980;5.848;2024-02-21T08:36:35;9.40;99.90
42019;DHT22;27703;51.980;5.848;2024-02-21T08:39:02;9.40;99.90
42019;DHT22;27703;51.980;5.848;2024-02-21T08:41:31;9.40;99.90
42019;DHT22;27703;51.980;5.848;2024-02-21T08:43:57;9.40;99.90
42019;DHT22;27703;51.980;5.848;2024-02-21T08:46:23;9.40;99.90
42019;DHT22;27703;51.980;5.848;2024-02-21T08:48:51;9.40;99.90
42019;DHT22;27703;51.980;5.848;2024-02-21T08:51:17;9.40;99.90
42019;DHT22;27703;51.980;5.848;2024-02-21T08:53:47;9.40;99.90
42019;DHT22;27703;51.980;5.848;2024-02-21T08:56:12;9.40;99.90
42019;DHT22;27703;51.980;5.848;2024-02-21T08:58:39;9.40;99.90
42019;DHT22;27703;51.980;5.848;2024-02-21T09:01:06;9.50;99.90
42019;DHT22;27703;51.980;5.848;2024-02-21T09:03:39;9.50;99.90
42019;DHT22;27703;51.980;5.848;2024-02-21T09:06:05;9.50;99.90
42019;DHT22;27703;51.980;5.848;2024-02-21T09:08:31;9.50;99.90
42019;DHT22;27703;51.980;5.848;2024-02-21T09:10:57;9.50;99.90
42019;DHT22;27703;51.980;5.848;2024-02-21T09:13:23;9.50;99.90
42019;DHT22;27703;51.980;5.848;2024-02-21T09:15:49;9.50;99.90
42019;DHT22;27703;51.980;5.848;2024-02-21T09:18:15;9.50;99.90
42019;DHT22;27703;51.980;5.848;2024-02-21T09:20:42;9.50;99.90
42019;DHT22;27703;51.980;5.848;2024-02-21T09:23:07;9.60;99.90
42019;DHT22;27703;51.980;5.848;2024-02-21T09:25:33;9.60;99.90
42019;DHT22;27703;51.980;5.848;2024-02-21T09:28:00;9.60;99.90
42019;DHT22;27703;51.980;5.848;2024-02-21T09:30:26;9.60;99.90
42019;DHT22;27703;51.980;5.848;2024-02-21T09:32:51;9.70;99.90
42019;DHT22;27703;51.980;5.848;2024-02-21T09:35:18;9.60;99.90
42019;DHT22;27703;51.980;5.848;2024-02-21T09:37:43;9.70;99.90
42019;DHT22;27703;51.980;5.848;2024-02-21T09:40:09;9.70;99.90
42019;DHT22;27703;51.980;5.848;2024-02-21T09:42:39;9.70;99.90
42019;DHT22;27703;51.980;5.848;2024-02-21T09:45:09;9.70;99.90
42019;DHT22;27703;51.980;5.848;2024-02-21T09:50:43;9.70;99.90
42019;DHT22;27703;51.980;5.848;2024-02-21T09:53:11;9.70;99.90
42019;DHT22;27703;51.980;5.848;2024-02-21T09:55:38;9.70;99.90
42019;DHT22;27703;51.980;5.848;2024-02-21T09:58:05;9.70;99.90
42019;DHT22;27703;51.980;5.848;2024-02-21T10:00:31;9.70;99.90
42019;DHT22;27703;51.980;5.848;2024-02-21T10:02:58;9.70;99.90
42019;DHT22;27703;51.980;5.848;2024-02-21T10:05:24;9.80;99.90
42019;DHT22;27703;51.980;5.848;2024-02-21T10:07:51;9.80;99.90
42019;DHT22;27703;51.980;5.848;2024-02-21T10:10:17;9.80;99.90
42019;DHT22;27703;51.980;5.848;2024-02-21T10:12:53;9.80;99.90
42019;DHT22;27703;51.980;5.848;2024-02-21T10:15:23;9.80;99.90
42019;DHT22;27703;51.980;5.848;2024-02-21T10:18:02;9.90;99.90
42019;DHT22;27703;51.980;5.848;2024-02-21T10:20:29;9.90;99.90
42019;DHT22;27703;51.980;5.848;2024-02-21T10:23:01;9.90;99.90
42019;DHT22;27703;51.980;5.848;2024-02-21T10:25:28;10.00;99.90
42019;DHT22;27703;51.980;5.848;2024-02-21T10:27:55;10.00;99.90
42019;DHT22;27703;51.980;5.848;2024-02-21T10:30:21;10.00;99.90
42019;DHT22;27703;51.980;5.848;2024-02-21T10:32:50;9.90;99.90
42019;DHT22;27703;51.980;5.848;2024-02-21T10:35:29;9.90;99.90
42019;DHT22;27703;51.980;5.848;2024-02-21T10:37:56;9.90;99.90
42019;DHT22;27703;51.980;5.848;2024-02-21T10:40:26;9.90;99.90
42019;DHT22;27703;51.980;5.848;2024-02-21T10:42:56;9.80;99.90
42019;DHT22;27703;51.980;5.848;2024-02-21T10:45:32;9.80;99.90
42019;DHT22;27703;51.980;5.848;2024-02-21T10:48:26;9.80;99.90
42019;DHT22;27703;51.980;5.848;2024-02-21T10:51:16;9.70;99.90
42019;DHT22;27703;51.980;5.848;2024-02-21T10:56:39;9.70;99.90
42019;DHT22;27703;51.980;5.848;2024-02-21T10:59:07;9.70;99.90
42019;DHT22;27703;51.980;5.848;2024-02-21T11:01:33;9.70;99.90
42019;DHT22;27703;51.980;5.848;2024-02-21T11:04:06;9.70;99.90
42019;DHT22;27703;51.980;5.848;2024-02-21T11:06:37;9.80;99.90
42019;DHT22;27703;51.980;5.848;2024-02-21T11:09:03;9.80;99.90
42019;DHT22;27703;51.980;5.848;2024-02-21T11:11:33;9.80;99.90
42019;DHT22;27703;51.980;5.848;2024-02-21T11:14:19;9.80;99.90
42019;DHT22;27703;51.980;5.848;2024-02-21T11:16:45;9.80;99.90
42019;DHT22;27703;51.980;5.848;2024-02-21T11:19:27;9.70;99.90
42019;DHT22;27703;51.980;5.848;2024-02-21T11:21:54;9.80;99.90
42019;DHT22;27703;51.980;5.848;2024-02-21T11:24:30;9.80;99.90
42019;DHT22;27703;51.980;5.848;2024-02-21T11:27:07;9.80;99.90
42019;DHT22;27703;51.980;5.848;2024-02-21T11:29:33;9.80;99.90
42019;DHT22;27703;51.980;5.848;2024-02-21T11:32:09;9.80;99.90
42019;DHT22;27703;51.980;5.848;2024-02-21T11:34:36;9.80;99.90
42019;DHT22;27703;51.980;5.848;2024-02-21T11:37:01;9.80;99.90
42019;DHT22;27703;51.980;5.848;2024-02-21T11:39:27;9.80;99.90
42019;DHT22;27703;51.980;5.848;2024-02-21T11:42:06;9.70;99.90
42019;DHT22;27703;51.980;5.848;2024-02-21T11:44:38;9.70;99.90
42019;DHT22;27703;51.980;5.848;2024-02-21T11:47:05;9.70;99.90
42019;DHT22;27703;51.980;5.848;2024-02-21T11:49:37;9.70;99.90
42019;DHT22;27703;51.980;5.848;2024-02-21T11:52:04;9.70;99.90
42019;DHT22;27703;51.980;5.848;2024-02-21T11:54:30;9.70;99.90
42019;DHT22;27703;51.980;5.848;2024-02-21T11:56:56;9.80;99.90
42019;DHT22;27703;51.980;5.848;2024-02-21T11:59:21;9.70;99.90
42019;DHT22;27703;51.980;5.848;2024-02-21T12:01:48;9.70;99.90
42019;DHT22;27703;51.980;5.848;2024-02-21T12:04:15;9.70;99.90
42019;DHT22;27703;51.980;5.848;2024-02-21T12:06:43;9.80;99.90
42019;DHT22;27703;51.980;5.848;2024-02-21T12:09:08;9.80;99.90
42019;DHT22;27703;51.980;5.848;2024-02-21T12:11:34;9.80;99.90
42019;DHT22;27703;51.980;5.848;2024-02-21T12:14:01;9.80;99.90
42019;DHT22;27703;51.980;5.848;2024-02-21T12:16:28;9.90;99.90
42019;DHT22;27703;51.980;5.848;2024-02-21T12:18:56;9.90;99.90
42019;DHT22;27703;51.980;5.848;2024-02-21T12:21:31;10.00;99.90
42019;DHT22;27703;51.980;5.848;2024-02-21T12:23:58;10.00;99.90
42019;DHT22;27703;51.980;5.848;2024-02-21T12:26:24;10.10;99.90
42019;DHT22;27703;51.980;5.848;2024-02-21T12:28:49;10.20;99.90
42019;DHT22;27703;51.980;5.848;2024-02-21T12:31:15;10.30;99.90
42019;DHT22;27703;51.980;5.848;2024-02-21T12:33:44;10.40;99.90
42019;DHT22;27703;51.980;5.848;2024-02-21T12:36:10;10.40;99.90
42019;DHT22;27703;51.980;5.848;2024-02-21T12:38:36;10.50;99.90
42019;DHT22;27703;51.980;5.848;2024-02-21T12:41:02;10.50;99.90
42019;DHT22;27703;51.980;5.848;2024-02-21T12:43:28;10.60;99.90
42019;DHT22;27703;51.980;5.848;2024-02-21T12:45:54;10.50;99.90
42019;DHT22;27703;51.980;5.848;2024-02-21T12:48:20;10.60;99.90
42019;DHT22;27703;51.980;5.848;2024-02-21T12:50:52;10.60;99.90
42019;DHT22;27703;51.980;5.848;2024-02-21T12:53:20;10.60;99.90
42019;DHT22;27703;51.980;5.848;2024-02-21T12:55:50;10.60;99.90
42019;DHT22;27703;51.980;5.848;2024-02-21T12:58:16;10.60;99.90
42019;DHT22;27703;51.980;5.848;2024-02-21T13:00:42;10.60;99.90
42019;DHT22;27703;51.980;5.848;2024-02-21T13:03:08;10.70;99.90
42019;DHT22;27703;51.980;5.848;2024-02-21T13:05:35;10.60;99.90
42019;DHT22;27703;51.980;5.848;2024-02-21T13:08:01;10.70;99.90
42019;DHT22;27703;51.980;5.848;2024-02-21T13:10:27;10.70;99.90
42019;DHT22;27703;51.980;5.848;2024-02-21T13:12:52;10.60;99.90
42019;DHT22;27703;51.980;5.848;2024-02-21T13:15:18;10.60;99.90
42019;DHT22;27703;51.980;5.848;2024-02-21T13:17:44;10.70;99.90
42019;DHT22;27703;51.980;5.848;2024-02-21T13:20:10;10.70;99.90
42019;DHT22;27703;51.980;5.848;2024-02-21T13:22:36;10.60;99.90
42019;DHT22;27703;51.980;5.848;2024-02-21T13:25:03;10.70;99.90
42019;DHT22;27703;51.980;5.848;2024-02-21T13:27:29;10.70;99.90
42019;DHT22;27703;51.980;5.848;2024-02-21T13:29:54;10.80;99.90
42019;DHT22;27703;51.980;5.848;2024-02-21T13:32:20;10.80;99.90
42019;DHT22;27703;51.980;5.848;2024-02-21T13:34:45;10.80;99.90
42019;DHT22;27703;51.980;5.848;2024-02-21T13:37:11;10.80;99.90
42019;DHT22;27703;51.980;5.848;2024-02-21T13:39:37;10.90;99.90
42019;DHT22;27703;51.980;5.848;2024-02-21T13:42:03;10.90;99.90
42019;DHT22;27703;51.980;5.848;2024-02-21T13:44:31;10.90;99.90
42019;DHT22;27703;51.980;5.848;2024-02-21T13:46:57;11.00;99.90
42019;DHT22;27703;51.980;5.848;2024-02-21T13:49:22;11.00;99.90
42019;DHT22;27703;51.980;5.848;2024-02-21T13:51:48;11.00;99.90
42019;DHT22;27703;51.980;5.848;2024-02-21T13:54:14;11.00;99.90
42019;DHT22;27703;51.980;5.848;2024-02-21T13:56:42;11.00;99.90
42019;DHT22;27703;51.980;5.848;2024-02-21T13:59:08;11.00;99.90
42019;DHT22;27703;51.980;5.848;2024-02-21T14:01:34;11.00;99.90
42019;DHT22;27703;51.980;5.848;2024-02-21T14:04:01;11.00;99.90
42019;DHT22;27703;51.980;5.848;2024-02-21T14:06:27;11.00;99.90
42019;DHT22;27703;51.980;5.848;2024-02-21T14:08:53;11.00;99.90
42019;DHT22;27703;51.980;5.848;2024-02-21T14:11:18;11.00;99.90
42019;DHT22;27703;51.980;5.848;2024-02-21T14:13:44;11.00;99.90
42019;DHT22;27703;51.980;5.848;2024-02-21T14:16:10;11.00;99.90
42019;DHT22;27703;51.980;5.848;2024-02-21T14:18:39;11.00;99.90
42019;DHT22;27703;51.980;5.848;2024-02-21T14:21:06;11.00;99.90
42019;DHT22;27703;51.980;5.848;2024-02-21T14:23:32;11.00;99.90
42019;DHT22;27703;51.980;5.848;2024-02-21T14:25:59;11.00;99.90
42019;DHT22;27703;51.980;5.848;2024-02-21T14:28:24;11.00;99.90
42019;DHT22;27703;51.980;5.848;2024-02-21T14:30:50;11.00;99.90
42019;DHT22;27703;51.980;5.848;2024-02-21T14:33:19;11.00;99.90
42019;DHT22;27703;51.980;5.848;2024-02-21T14:35:44;10.90;99.90
42019;DHT22;27703;51.980;5.848;2024-02-21T14:38:10;10.90;99.90
42019;DHT22;27703;51.980;5.848;2024-02-21T14:40:35;10.90;99.90
42019;DHT22;27703;51.980;5.848;2024-02-21T14:43:01;10.90;99.90
42019;DHT22;27703;51.980;5.848;2024-02-21T14:45:26;10.80;99.90
42019;DHT22;27703;51.980;5.848;2024-02-21T14:47:52;10.80;99.90
42019;DHT22;27703;51.980;5.848;2024-02-21T14:50:17;10.80;99.90
42019;DHT22;27703;51.980;5.848;2024-02-21T14:52:44;10.80;99.90
42019;DHT22;27703;51.980;5.848;2024-02-21T14:55:09;10.80;99.90
42019;DHT22;27703;51.980;5.848;2024-02-21T14:57:35;10.80;99.90
42019;DHT22;27703;51.980;5.848;2024-02-21T15:00:02;10.80;99.90
42019;DHT22;27703;51.980;5.848;2024-02-21T15:02:28;10.80;99.90
42019;DHT22;27703;51.980;5.848;2024-02-21T15:04:54;10.80;99.90
42019;DHT22;27703;51.980;5.848;2024-02-21T15:07:20;10.80;99.90
42019;DHT22;27703;51.980;5.848;2024-02-21T15:09:49;10.70;99.90
42019;DHT22;27703;51.980;5.848;2024-02-21T15:12:15;10.70;99.90
42019;DHT22;27703;51.980;5.848;2024-02-21T15:14:40;10.70;99.90
42019;DHT22;27703;51.980;5.848;2024-02-21T15:17:06;10.70;99.90
42019;DHT22;27703;51.980;5.848;2024-02-21T15:19:31;10.70;99.90
42019;DHT22;27703;51.980;5.848;2024-02-21T15:21:58;10.60;99.90
42019;DHT22;27703;51.980;5.848;2024-02-21T15:24:24;10.60;99.90
42019;DHT22;27703;51.980;5.848;2024-02-21T15:26:50;10.50;99.90
42019;DHT22;27703;51.980;5.848;2024-02-21T15:29:15;10.50;99.90
42019;DHT22;27703;51.980;5.848;2024-02-21T15:31:41;10.50;99.90
42019;DHT22;27703;51.980;5.848;2024-02-21T15:34:12;10.40;99.90
42019;DHT22;27703;51.980;5.848;2024-02-21T15:36:38;10.40;99.90
42019;DHT22;27703;51.980;5.848;2024-02-21T15:39:04;10.30;99.90
42019;DHT22;27703;51.980;5.848;2024-02-21T15:41:30;10.30;99.90
42019;DHT22;27703;51.980;5.848;2024-02-21T15:43:55;10.20;99.90
42019;DHT22;27703;51.980;5.848;2024-02-21T15:46:24;10.20;99.90